Nearby METAR Reports

 

KISP - Islip, New York, USA
Distance from station: SW 4mi, 6km
Updated: Sun, 06/24/2018 2:56 am EDT
Overcast
Overcast
 Wind from calm
Wind: Calm
Temperature: 63°F , 17°C
Dew Point: 63°F , 17°C
Humidity: 100%
Barometer: 29.82 inHg , 1009.8 hPa
Clouds: Overcast
Visibility: 7 miles , 11 km
Cloud details: Overcast 400 ft
2018/06/24 06:56 KISP 240656Z AUTO 00000KT 7SM OVC004 17/17 A2982 RMK AO2 SLP096 T01720167
KHWV - Shirley, New York, USA
Distance from station: E 10mi, 16km
Updated: Sun, 06/24/2018 2:56 am EDT
Mist, Overcast
Mist, Overcast
 Wind from NNW
Wind: NNW 5 mph , 7 km/h
Temperature: 63°F , 17°C
Dew Point: 63°F , 17°C
Humidity: 100%
Barometer: 29.82 inHg , 1009.8 hPa
Summary: Mist
Clouds: Overcast
Visibility: 6 miles , 10 km
Cloud details: Overcast 300 ft
2018/06/24 06:56 KHWV 240656Z AUTO 34004KT 6SM BR OVC003 17/17 A2982 RMK AO2 CIG 002V006 SLP098 T01720172 TSNO
 
KFRG - Farmingdale, New York, USA
Distance from station: WSW 20mi, 33km
Updated: Sun, 06/24/2018 2:53 am EDT
Overcast
Overcast
 Wind from NE
Wind: NE 3 mph , 6 km/h
Temperature: 64°F , 18°C
Dew Point: 63°F , 17°C
Humidity: 94%
Barometer: 29.82 inHg , 1009.8 hPa
Clouds: Overcast
Visibility: 10 miles , 16 km
Cloud details: Overcast 1800 ft
2018/06/24 06:53 KFRG 240653Z AUTO 04003KT 10SM OVC018 18/17 A2982 RMK AO2 SLP096 T01780167
KBDR - Bridgeport, Connecticut, USA
Distance from station: N 23mi, 37km
Updated: Sun, 06/24/2018 2:52 am EDT
Overcast
Overcast
 Wind from SE
Wind: SE 5 mph , 7 km/h
Temperature: 63°F , 17°C
Dew Point: 61°F , 16°C
Humidity: 94%
Barometer: 29.81 inHg , 1009.5 hPa
Clouds: Overcast
Visibility: 10 miles , 16 km
Cloud details: Mostly cloudy 800 ft
Overcast 1800 ft
2018/06/24 06:52 KBDR 240652Z AUTO 13004KT 10SM BKN008 OVC018 17/16 A2981 RMK AO2 SLP096 T01720156
 
KFOK - Westhampton Beac, New York, USA
Distance from station: E 23mi, 37km
Updated: Sun, 06/24/2018 3:03 am EDT
Mist, Overcast
Mist, Overcast
 Wind from N
Wind: N 3 mph , 6 km/h
Temperature: 63°F , 17°C
Dew Point: 61°F , 16°C
Humidity: 94%
Barometer: 29.83 inHg , 1010.2 hPa
Summary: Mist
Clouds: Overcast
Visibility: 1 1/4 miles , 2 km
Cloud details: Overcast 200 ft
2018/06/24 07:03 KFOK 240703Z AUTO 35003KT 1 1/4SM BR OVC002 17/16 A2983 RMK AO2 T01720161 $
KHVN - New Haven/Tweed, Connecticut, USA
Distance from station: NNE 31mi, 50km
Updated: Sun, 06/24/2018 2:53 am EDT
Overcast
Overcast
 Wind from calm
Wind: Calm
Temperature: 63°F , 17°C
Dew Point: 61°F , 16°C
Humidity: 94%
Barometer: 29.82 inHg , 1009.8 hPa
Clouds: Overcast
Visibility: 10 miles , 16 km
Cloud details: Few Clouds 1800 ft
Overcast 3400 ft
2018/06/24 06:53 KHVN 240653Z AUTO 00000KT 10SM FEW018 OVC034 17/16 A2982 RMK AO2 SLP097 T01720156
 
KHPN - White Plains, New York, USA
Distance from station: WNW 37mi, 60km
Updated: Sun, 06/24/2018 2:56 am EDT
Fog, Overcast
Fog, Overcast
 Wind from SSE
Wind: SSE 5 mph , 7 km/h
Temperature: 63°F , 17°C
Dew Point: 63°F , 17°C
Humidity: 100%
Barometer: 29.81 inHg , 1009.5 hPa
Summary: Fog
Clouds: Overcast
Visibility: 1/4 mile , 0.4 km
Cloud details: Overcast 100 ft
2018/06/24 06:56 KHPN 240656Z 16004KT 1/4SM R16/2000V4500FT FG VV001 17/17 A2981 RMK AO2 SLP094 T01670167
KJFK - Nyc/Jfk Arpt, New York, USA
Distance from station: WSW 40mi, 64km
Updated: Sun, 06/24/2018 2:51 am EDT
Overcast
Overcast
 Wind from ESE
Wind: ESE 3 mph , 6 km/h
Temperature: 66°F , 19°C
Dew Point: 64°F , 18°C
Humidity: 94%
Barometer: 29.82 inHg , 1009.8 hPa
Clouds: Overcast
Visibility: 8 miles , 13 km
Cloud details: Mostly cloudy 1100 ft
Overcast 2300 ft
2018/06/24 06:51 KJFK 240651Z 12003KT 8SM BKN011 OVC023 19/18 A2982 RMK AO2 SLP098 T01890178
 
KDXR - Danbury, Connecticut, USA
Distance from station: NNW 42mi, 68km
Updated: Sun, 06/24/2018 2:53 am EDT
Overcast
Overcast
 Wind from calm
Wind: Calm
Temperature: 61°F , 16°C
Dew Point: 61°F , 16°C
Humidity: 100%
Barometer: 29.83 inHg , 1010.2 hPa
Clouds: Overcast
Visibility: 9 miles , 14 km
Cloud details: Overcast 600 ft
2018/06/24 06:53 KDXR 240653Z AUTO 00000KT 9SM OVC006 16/16 A2983 RMK AO2 SLP099 T01610156
KHTO - East Hampton, New York, USA
Distance from station: E 43mi, 69km
Updated: Sun, 06/24/2018 2:55 am EDT
Mist, Overcast
Mist, Overcast
 Wind from calm
Wind: Calm
Temperature: 61°F , 16°C
Dew Point: 61°F , 16°C
Humidity: 100%
Barometer: 29.81 inHg , 1009.5 hPa
Summary: Mist
Clouds: Overcast
Visibility: 1 3/4 miles , 2.8 km
Cloud details: Overcast 300 ft
2018/06/24 06:55 KHTO 240655Z AUTO 00000KT 1 3/4SM BR OVC003 16/16 A2981 RMK AO2 T01600158
 
KOXC - Oxford/Waterbury, Connecticut, USA
Distance from station: N 43mi, 70km
Updated: Sun, 06/24/2018 2:51 am EDT
Overcast
Overcast
 Wind from calm
Wind: Calm
Temperature: 59°F , 15°C
Dew Point: 57°F , 14°C
Humidity: 94%
Barometer: 29.83 inHg , 1010.2 hPa
Clouds: Overcast
Visibility: 7 miles , 11 km
Cloud details: Overcast 400 ft
2018/06/24 06:51 KOXC 240651Z AUTO 00000KT 7SM OVC004 15/14 A2983 RMK AO2 SLP114 T01500144
KLGA - Nyc/La Guardia, New York, USA
Distance from station: W 44mi, 70km
Updated: Sun, 06/24/2018 2:51 am EDT
Overcast
Overcast
 Wind from ENE
Wind: ENE 6 mph , 9 km/h
Temperature: 66°F , 19°C
Dew Point: 63°F , 17°C
Humidity: 88%
Barometer: 29.81 inHg , 1009.5 hPa
Clouds: Overcast
Visibility: 10 miles , 16 km
Cloud details: Few Clouds 900 ft
Overcast 1500 ft
2018/06/24 06:51 KLGA 240651Z 07005KT 10SM FEW009 OVC015 19/17 A2981 RMK AO2 SLP094 T01890167 $
 
KSNC - Chester, Connecticut, USA
Distance from station: NE 47mi, 76km
Updated: Sun, 06/24/2018 2:55 am EDT
Mist, Overcast
Mist, Overcast
 Wind from calm
Wind: Calm
Temperature: 61°F , 16°C
Dew Point: 61°F , 16°C
Humidity: 100%
Barometer: 29.82 inHg , 1009.8 hPa
Summary: Mist
Clouds: Overcast
Visibility: 2 1/2 miles , 4 km
Cloud details: Overcast 100 ft
2018/06/24 06:55 KSNC 240655Z AUTO 00000KT 2 1/2SM BR OVC001 16/16 A2982 RMK AO2
KMMK - Meriden, Connecticut, USA
Distance from station: NNE 48mi, 77km
Updated: Sun, 06/24/2018 2:53 am EDT
Overcast
Overcast
 Wind from NNW
Wind: NNW 3 mph , 6 km/h
Temperature: 61°F , 16°C
Dew Point: 57°F , 14°C
Humidity: 88%
Barometer: 29.82 inHg , 1009.8 hPa
Clouds: Overcast
Visibility: 10 miles , 16 km
Cloud details: Overcast 800 ft
2018/06/24 06:53 KMMK 240653Z AUTO 34003KT 10SM OVC008 16/14 A2982 RMK AO2 CIG 005V010 SLP097 T01560139
 
KNYC - Nyc/Central Park, New York, USA
Distance from station: W 48mi, 77km
Updated: Sun, 06/24/2018 2:51 am EDT
Overcast
Overcast
 Wind from calm
Wind: Calm
Temperature: 66°F , 19°C
Dew Point: 63°F , 17°C
Humidity: 88%
Barometer: 29.84 inHg , 1010.5 hPa
Clouds: Overcast
Visibility: 9 miles , 14 km
Cloud details: Overcast 1600 ft
2018/06/24 06:51 KNYC 240651Z AUTO 00000KT 9SM OVC016 19/17 A2984 RMK AO2 SLP096 T01890167 $